sensor_id;sensor_type;location;lat;lon;timestamp;P1;durP1;ratioP1;P2;durP2;ratioP2
76357;SDS011;65185;21.060;105.826;2023-08-06T00:01:39;39.00;;;23.88;;
76357;SDS011;65185;21.060;105.826;2023-08-06T00:04:05;33.55;;;22.77;;
76357;SDS011;65185;21.060;105.826;2023-08-06T00:06:32;30.42;;;20.15;;
76357;SDS011;65185;21.060;105.826;2023-08-06T00:08:59;29.30;;;16.40;;
76357;SDS011;65185;21.060;105.826;2023-08-06T00:11:26;26.38;;;16.08;;
76357;SDS011;65185;21.060;105.826;2023-08-06T00:13:52;24.58;;;14.45;;
76357;SDS011;65185;21.060;105.826;2023-08-06T00:16:19;22.67;;;14.98;;
76357;SDS011;65185;21.060;105.826;2023-08-06T00:18:45;25.13;;;13.73;;
76357;SDS011;65185;21.060;105.826;2023-08-06T00:21:12;22.00;;;13.18;;
76357;SDS011;65185;21.060;105.826;2023-08-06T00:23:39;22.75;;;14.85;;
76357;SDS011;65185;21.060;105.826;2023-08-06T00:26:07;24.25;;;13.05;;
76357;SDS011;65185;21.060;105.826;2023-08-06T00:28:34;21.52;;;12.88;;
76357;SDS011;65185;21.060;105.826;2023-08-06T00:31:01;23.73;;;13.88;;
76357;SDS011;65185;21.060;105.826;2023-08-06T00:33:27;21.33;;;13.35;;
76357;SDS011;65185;21.060;105.826;2023-08-06T00:35:54;23.92;;;12.95;;
76357;SDS011;65185;21.060;105.826;2023-08-06T00:38:21;23.98;;;14.75;;
76357;SDS011;65185;21.060;105.826;2023-08-06T00:40:48;21.85;;;13.05;;
76357;SDS011;65185;21.060;105.826;2023-08-06T00:43:14;23.35;;;13.40;;
76357;SDS011;65185;21.060;105.826;2023-08-06T00:45:41;21.13;;;12.27;;
76357;SDS011;65185;21.060;105.826;2023-08-06T00:48:09;22.55;;;13.77;;
76357;SDS011;65185;21.060;105.826;2023-08-06T00:50:36;22.27;;;12.55;;
76357;SDS011;65185;21.060;105.826;2023-08-06T00:53:03;18.27;;;11.85;;
76357;SDS011;65185;21.060;105.826;2023-08-06T00:55:29;18.73;;;11.63;;
76357;SDS011;65185;21.060;105.826;2023-08-06T00:57:56;22.30;;;12.95;;
76357;SDS011;65185;21.060;105.826;2023-08-06T01:00:24;20.83;;;11.20;;
76357;SDS011;65185;21.060;105.826;2023-08-06T01:02:52;21.52;;;12.98;;
76357;SDS011;65185;21.060;105.826;2023-08-06T01:05:20;23.00;;;12.63;;
76357;SDS011;65185;21.060;105.826;2023-08-06T01:08:07;23.17;;;13.90;;
76357;SDS011;65185;21.060;105.826;2023-08-06T01:11:01;25.73;;;14.50;;
76357;SDS011;65185;21.060;105.826;2023-08-06T01:13:42;23.73;;;13.07;;
76357;SDS011;65185;21.060;105.826;2023-08-06T01:16:16;23.63;;;13.40;;
76357;SDS011;65185;21.060;105.826;2023-08-06T01:18:44;21.85;;;12.63;;
76357;SDS011;65185;21.060;105.826;2023-08-06T01:21:18;22.90;;;13.73;;
76357;SDS011;65185;21.060;105.826;2023-08-06T01:23:45;24.67;;;15.05;;
76357;SDS011;65185;21.060;105.826;2023-08-06T01:26:35;24.27;;;15.23;;
76357;SDS011;65185;21.060;105.826;2023-08-06T01:29:21;23.23;;;15.27;;
76357;SDS011;65185;21.060;105.826;2023-08-06T01:31:50;25.65;;;16.25;;
76357;SDS011;65185;21.060;105.826;2023-08-06T01:34:22;25.90;;;14.88;;
76357;SDS011;65185;21.060;105.826;2023-08-06T01:36:51;26.52;;;17.05;;
76357;SDS011;65185;21.060;105.826;2023-08-06T01:39:18;28.25;;;17.40;;
76357;SDS011;65185;21.060;105.826;2023-08-06T01:41:47;25.13;;;16.42;;
76357;SDS011;65185;21.060;105.826;2023-08-06T01:44:16;31.25;;;18.00;;
76357;SDS011;65185;21.060;105.826;2023-08-06T01:46:43;29.25;;;18.27;;
76357;SDS011;65185;21.060;105.826;2023-08-06T01:49:10;34.25;;;20.52;;
76357;SDS011;65185;21.060;105.826;2023-08-06T01:51:37;32.72;;;19.65;;
76357;SDS011;65185;21.060;105.826;2023-08-06T01:54:03;27.55;;;17.75;;
76357;SDS011;65185;21.060;105.826;2023-08-06T01:56:30;32.45;;;18.88;;
76357;SDS011;65185;21.060;105.826;2023-08-06T01:58:57;25.45;;;16.15;;
76357;SDS011;65185;21.060;105.826;2023-08-06T02:01:23;26.42;;;17.15;;
76357;SDS011;65185;21.060;105.826;2023-08-06T02:03:50;26.20;;;15.70;;
76357;SDS011;65185;21.060;105.826;2023-08-06T02:06:17;27.98;;;16.27;;
76357;SDS011;65185;21.060;105.826;2023-08-06T02:08:43;27.67;;;16.65;;
76357;SDS011;65185;21.060;105.826;2023-08-06T02:11:10;25.65;;;15.65;;
76357;SDS011;65185;21.060;105.826;2023-08-06T02:13:36;24.05;;;14.55;;
76357;SDS011;65185;21.060;105.826;2023-08-06T02:16:03;28.30;;;16.10;;
76357;SDS011;65185;21.060;105.826;2023-08-06T02:18:33;27.65;;;16.20;;
76357;SDS011;65185;21.060;105.826;2023-08-06T02:21:00;24.15;;;13.55;;
76357;SDS011;65185;21.060;105.826;2023-08-06T02:23:27;26.70;;;15.77;;
76357;SDS011;65185;21.060;105.826;2023-08-06T02:26:00;27.67;;;15.50;;
76357;SDS011;65185;21.060;105.826;2023-08-06T02:28:29;21.85;;;14.05;;
76357;SDS011;65185;21.060;105.826;2023-08-06T02:30:56;30.83;;;17.38;;
76357;SDS011;65185;21.060;105.826;2023-08-06T02:33:23;27.38;;;15.43;;
76357;SDS011;65185;21.060;105.826;2023-08-06T02:35:50;24.02;;;14.73;;
76357;SDS011;65185;21.060;105.826;2023-08-06T02:38:17;26.23;;;17.10;;
76357;SDS011;65185;21.060;105.826;2023-08-06T02:40:44;33.15;;;18.42;;
76357;SDS011;65185;21.060;105.826;2023-08-06T02:43:12;26.70;;;17.42;;
76357;SDS011;65185;21.060;105.826;2023-08-06T02:45:39;29.85;;;17.77;;
76357;SDS011;65185;21.060;105.826;2023-08-06T02:48:06;30.73;;;18.40;;
76357;SDS011;65185;21.060;105.826;2023-08-06T02:50:39;29.80;;;17.55;;
76357;SDS011;65185;21.060;105.826;2023-08-06T02:53:06;30.17;;;17.10;;
76357;SDS011;65185;21.060;105.826;2023-08-06T02:55:34;30.98;;;16.75;;
76357;SDS011;65185;21.060;105.826;2023-08-06T02:58:01;31.60;;;19.35;;
76357;SDS011;65185;21.060;105.826;2023-08-06T03:00:28;28.45;;;17.33;;
76357;SDS011;65185;21.060;105.826;2023-08-06T03:02:55;26.13;;;16.95;;
76357;SDS011;65185;21.060;105.826;2023-08-06T03:05:25;28.48;;;17.83;;
76357;SDS011;65185;21.060;105.826;2023-08-06T03:07:52;43.75;;;25.45;;
76357;SDS011;65185;21.060;105.826;2023-08-06T03:10:19;34.53;;;20.90;;
76357;SDS011;65185;21.060;105.826;2023-08-06T03:12:45;33.30;;;21.58;;
76357;SDS011;65185;21.060;105.826;2023-08-06T03:15:12;34.75;;;19.75;;
76357;SDS011;65185;21.060;105.826;2023-08-06T03:17:42;32.97;;;20.88;;
76357;SDS011;65185;21.060;105.826;2023-08-06T03:20:09;28.20;;;19.67;;
76357;SDS011;65185;21.060;105.826;2023-08-06T03:22:40;29.52;;;17.75;;
76357;SDS011;65185;21.060;105.826;2023-08-06T03:25:06;35.13;;;21.77;;
76357;SDS011;65185;21.060;105.826;2023-08-06T03:27:33;33.33;;;20.33;;
76357;SDS011;65185;21.060;105.826;2023-08-06T03:30:00;33.97;;;21.38;;
76357;SDS011;65185;21.060;105.826;2023-08-06T03:32:27;32.08;;;19.15;;
76357;SDS011;65185;21.060;105.826;2023-08-06T03:34:56;24.85;;;16.75;;
76357;SDS011;65185;21.060;105.826;2023-08-06T03:37:23;26.73;;;17.17;;
76357;SDS011;65185;21.060;105.826;2023-08-06T03:39:53;29.05;;;17.85;;
76357;SDS011;65185;21.060;105.826;2023-08-06T03:42:19;29.08;;;18.63;;
76357;SDS011;65185;21.060;105.826;2023-08-06T03:44:46;29.23;;;18.60;;
76357;SDS011;65185;21.060;105.826;2023-08-06T03:47:13;29.25;;;19.60;;
76357;SDS011;65185;21.060;105.826;2023-08-06T03:49:40;31.10;;;18.23;;
76357;SDS011;65185;21.060;105.826;2023-08-06T03:52:09;34.30;;;19.80;;
76357;SDS011;65185;21.060;105.826;2023-08-06T03:54:35;28.02;;;16.30;;
76357;SDS011;65185;21.060;105.826;2023-08-06T03:57:02;23.25;;;16.08;;
76357;SDS011;65185;21.060;105.826;2023-08-06T03:59:29;23.63;;;15.57;;
76357;SDS011;65185;21.060;105.826;2023-08-06T04:01:56;24.77;;;15.05;;
76357;SDS011;65185;21.060;105.826;2023-08-06T04:04:22;26.55;;;15.70;;
76357;SDS011;65185;21.060;105.826;2023-08-06T04:06:49;33.65;;;19.95;;
76357;SDS011;65185;21.060;105.826;2023-08-06T04:09:16;27.05;;;16.30;;
76357;SDS011;65185;21.060;105.826;2023-08-06T04:11:42;28.67;;;18.27;;
76357;SDS011;65185;21.060;105.826;2023-08-06T04:14:09;31.67;;;18.73;;
76357;SDS011;65185;21.060;105.826;2023-08-06T04:16:36;28.85;;;18.60;;
76357;SDS011;65185;21.060;105.826;2023-08-06T04:19:02;26.20;;;16.33;;
76357;SDS011;65185;21.060;105.826;2023-08-06T04:21:29;26.00;;;17.45;;
76357;SDS011;65185;21.060;105.826;2023-08-06T04:23:56;31.77;;;18.85;;
76357;SDS011;65185;21.060;105.826;2023-08-06T04:26:23;25.40;;;15.07;;
76357;SDS011;65185;21.060;105.826;2023-08-06T04:28:50;25.80;;;15.30;;
76357;SDS011;65185;21.060;105.826;2023-08-06T04:31:16;23.88;;;14.10;;
76357;SDS011;65185;21.060;105.826;2023-08-06T04:33:43;22.63;;;13.90;;
76357;SDS011;65185;21.060;105.826;2023-08-06T04:36:10;21.80;;;13.30;;
76357;SDS011;65185;21.060;105.826;2023-08-06T04:38:37;18.00;;;11.23;;
76357;SDS011;65185;21.060;105.826;2023-08-06T04:41:04;18.52;;;11.93;;
76357;SDS011;65185;21.060;105.826;2023-08-06T04:43:30;20.58;;;11.95;;
76357;SDS011;65185;21.060;105.826;2023-08-06T04:45:57;19.67;;;11.70;;
76357;SDS011;65185;21.060;105.826;2023-08-06T04:48:24;18.98;;;11.52;;
76357;SDS011;65185;21.060;105.826;2023-08-06T04:50:51;22.90;;;12.60;;
76357;SDS011;65185;21.060;105.826;2023-08-06T04:53:17;25.52;;;13.05;;
76357;SDS011;65185;21.060;105.826;2023-08-06T04:55:44;21.92;;;12.20;;
76357;SDS011;65185;21.060;105.826;2023-08-06T04:58:11;20.70;;;12.43;;
76357;SDS011;65185;21.060;105.826;2023-08-06T05:00:39;19.15;;;10.98;;
76357;SDS011;65185;21.060;105.826;2023-08-06T05:03:06;18.35;;;10.52;;
76357;SDS011;65185;21.060;105.826;2023-08-06T05:05:33;14.85;;;9.05;;
76357;SDS011;65185;21.060;105.826;2023-08-06T05:08:00;17.52;;;9.77;;
76357;SDS011;65185;21.060;105.826;2023-08-06T05:10:27;15.63;;;9.65;;
76357;SDS011;65185;21.060;105.826;2023-08-06T05:12:54;17.65;;;10.05;;
76357;SDS011;65185;21.060;105.826;2023-08-06T05:15:21;19.33;;;10.50;;
76357;SDS011;65185;21.060;105.826;2023-08-06T05:17:48;15.32;;;9.52;;
76357;SDS011;65185;21.060;105.826;2023-08-06T05:20:14;16.38;;;10.20;;
76357;SDS011;65185;21.060;105.826;2023-08-06T05:22:43;15.50;;;9.60;;
76357;SDS011;65185;21.060;105.826;2023-08-06T05:25:12;16.77;;;10.27;;
76357;SDS011;65185;21.060;105.826;2023-08-06T05:27:40;15.48;;;9.50;;
76357;SDS011;65185;21.060;105.826;2023-08-06T05:30:07;16.73;;;10.15;;
76357;SDS011;65185;21.060;105.826;2023-08-06T05:32:34;16.30;;;9.80;;
76357;SDS011;65185;21.060;105.826;2023-08-06T05:35:01;16.77;;;10.13;;
76357;SDS011;65185;21.060;105.826;2023-08-06T05:37:28;17.90;;;10.68;;
76357;SDS011;65185;21.060;105.826;2023-08-06T05:39:55;15.68;;;9.93;;
76357;SDS011;65185;21.060;105.826;2023-08-06T05:42:22;17.88;;;11.23;;
76357;SDS011;65185;21.060;105.826;2023-08-06T05:44:49;16.58;;;9.68;;
76357;SDS011;65185;21.060;105.826;2023-08-06T05:47:16;18.27;;;9.82;;
76357;SDS011;65185;21.060;105.826;2023-08-06T05:49:42;16.20;;;8.43;;
76357;SDS011;65185;21.060;105.826;2023-08-06T05:52:09;18.17;;;10.27;;
76357;SDS011;65185;21.060;105.826;2023-08-06T05:54:36;14.63;;;8.95;;
76357;SDS011;65185;21.060;105.826;2023-08-06T05:57:03;14.30;;;8.93;;
76357;SDS011;65185;21.060;105.826;2023-08-06T05:59:30;35.28;;;14.05;;
76357;SDS011;65185;21.060;105.826;2023-08-06T06:01:56;18.33;;;10.05;;
76357;SDS011;65185;21.060;105.826;2023-08-06T06:04:24;16.85;;;8.55;;
76357;SDS011;65185;21.060;105.826;2023-08-06T06:06:51;17.48;;;10.13;;
76357;SDS011;65185;21.060;105.826;2023-08-06T06:09:18;13.70;;;8.77;;
76357;SDS011;65185;21.060;105.826;2023-08-06T06:11:44;14.45;;;8.75;;
76357;SDS011;65185;21.060;105.826;2023-08-06T06:14:11;15.52;;;8.63;;
76357;SDS011;65185;21.060;105.826;2023-08-06T06:16:38;18.00;;;9.80;;
76357;SDS011;65185;21.060;105.826;2023-08-06T06:19:05;13.75;;;7.60;;
76357;SDS011;65185;21.060;105.826;2023-08-06T06:21:32;11.32;;;7.55;;
76357;SDS011;65185;21.060;105.826;2023-08-06T06:23:59;13.82;;;7.63;;
76357;SDS011;65185;21.060;105.826;2023-08-06T06:26:25;10.80;;;6.57;;
76357;SDS011;65185;21.060;105.826;2023-08-06T06:28:52;11.35;;;7.38;;
76357;SDS011;65185;21.060;105.826;2023-08-06T06:31:19;11.18;;;7.32;;
76357;SDS011;65185;21.060;105.826;2023-08-06T06:33:46;12.73;;;7.75;;
76357;SDS011;65185;21.060;105.826;2023-08-06T06:36:12;13.38;;;7.72;;
76357;SDS011;65185;21.060;105.826;2023-08-06T06:38:39;14.35;;;8.80;;
76357;SDS011;65185;21.060;105.826;2023-08-06T06:41:06;14.10;;;9.00;;
76357;SDS011;65185;21.060;105.826;2023-08-06T06:43:33;18.65;;;10.60;;
76357;SDS011;65185;21.060;105.826;2023-08-06T06:46:00;19.35;;;10.90;;
76357;SDS011;65185;21.060;105.826;2023-08-06T06:48:27;18.13;;;10.95;;
76357;SDS011;65185;21.060;105.826;2023-08-06T06:50:55;18.27;;;11.93;;
76357;SDS011;65185;21.060;105.826;2023-08-06T06:53:22;17.42;;;11.45;;
76357;SDS011;65185;21.060;105.826;2023-08-06T06:55:53;17.67;;;10.30;;
76357;SDS011;65185;21.060;105.826;2023-08-06T06:58:20;14.35;;;9.98;;
76357;SDS011;65185;21.060;105.826;2023-08-06T07:00:47;14.85;;;8.95;;
76357;SDS011;65185;21.060;105.826;2023-08-06T07:03:15;14.25;;;9.05;;
76357;SDS011;65185;21.060;105.826;2023-08-06T07:05:42;13.27;;;8.23;;
76357;SDS011;65185;21.060;105.826;2023-08-06T07:08:09;16.58;;;8.48;;
76357;SDS011;65185;21.060;105.826;2023-08-06T07:10:36;13.93;;;6.25;;
76357;SDS011;65185;21.060;105.826;2023-08-06T07:13:03;14.40;;;5.75;;
76357;SDS011;65185;21.060;105.826;2023-08-06T07:15:29;13.82;;;5.05;;
76357;SDS011;65185;21.060;105.826;2023-08-06T07:17:56;10.50;;;4.63;;
76357;SDS011;65185;21.060;105.826;2023-08-06T07:20:23;10.32;;;4.97;;
76357;SDS011;65185;21.060;105.826;2023-08-06T07:22:49;11.02;;;4.53;;
76357;SDS011;65185;21.060;105.826;2023-08-06T07:25:19;13.30;;;5.13;;
76357;SDS011;65185;21.060;105.826;2023-08-06T07:27:46;10.50;;;4.40;;
76357;SDS011;65185;21.060;105.826;2023-08-06T07:30:12;12.20;;;4.45;;
76357;SDS011;65185;21.060;105.826;2023-08-06T07:32:42;8.73;;;3.88;;
76357;SDS011;65185;21.060;105.826;2023-08-06T07:35:09;9.80;;;4.05;;
76357;SDS011;65185;21.060;105.826;2023-08-06T07:37:39;9.10;;;3.80;;
76357;SDS011;65185;21.060;105.826;2023-08-06T07:40:06;9.85;;;4.15;;
76357;SDS011;65185;21.060;105.826;2023-08-06T07:42:34;11.65;;;4.38;;
76357;SDS011;65185;21.060;105.826;2023-08-06T07:45:01;15.00;;;4.25;;
76357;SDS011;65185;21.060;105.826;2023-08-06T07:47:28;11.98;;;4.28;;
76357;SDS011;65185;21.060;105.826;2023-08-06T07:49:55;10.02;;;4.40;;
76357;SDS011;65185;21.060;105.826;2023-08-06T07:52:21;9.70;;;3.65;;
76357;SDS011;65185;21.060;105.826;2023-08-06T07:54:51;13.70;;;4.10;;
76357;SDS011;65185;21.060;105.826;2023-08-06T07:57:17;14.18;;;4.38;;
76357;SDS011;65185;21.060;105.826;2023-08-06T07:59:44;10.38;;;4.20;;
76357;SDS011;65185;21.060;105.826;2023-08-06T08:02:14;9.77;;;3.88;;
76357;SDS011;65185;21.060;105.826;2023-08-06T08:04:51;10.38;;;3.65;;
76357;SDS011;65185;21.060;105.826;2023-08-06T08:07:18;9.18;;;3.42;;
76357;SDS011;65185;21.060;105.826;2023-08-06T08:09:45;9.10;;;2.78;;
76357;SDS011;65185;21.060;105.826;2023-08-06T08:12:13;6.57;;;2.28;;
76357;SDS011;65185;21.060;105.826;2023-08-06T08:14:40;5.97;;;2.17;;
76357;SDS011;65185;21.060;105.826;2023-08-06T08:17:07;5.90;;;1.60;;
76357;SDS011;65185;21.060;105.826;2023-08-06T08:19:33;5.18;;;1.50;;
76357;SDS011;65185;21.060;105.826;2023-08-06T08:22:00;4.78;;;1.50;;
76357;SDS011;65185;21.060;105.826;2023-08-06T08:24:27;3.72;;;1.30;;
76357;SDS011;65185;21.060;105.826;2023-08-06T08:26:55;4.88;;;1.50;;
76357;SDS011;65185;21.060;105.826;2023-08-06T08:29:22;5.05;;;1.63;;
76357;SDS011;65185;21.060;105.826;2023-08-06T08:31:48;5.75;;;1.80;;
76357;SDS011;65185;21.060;105.826;2023-08-06T08:34:16;5.45;;;1.60;;
76357;SDS011;65185;21.060;105.826;2023-08-06T08:36:43;4.93;;;1.75;;
76357;SDS011;65185;21.060;105.826;2023-08-06T08:39:18;5.03;;;1.52;;
76357;SDS011;65185;21.060;105.826;2023-08-06T08:41:45;4.13;;;1.50;;
76357;SDS011;65185;21.060;105.826;2023-08-06T08:44:11;3.97;;;1.52;;
76357;SDS011;65185;21.060;105.826;2023-08-06T08:46:41;4.07;;;1.50;;
76357;SDS011;65185;21.060;105.826;2023-08-06T08:49:10;3.90;;;1.40;;
76357;SDS011;65185;21.060;105.826;2023-08-06T08:51:37;7.97;;;1.92;;
76357;SDS011;65185;21.060;105.826;2023-08-06T08:54:04;6.38;;;1.63;;
76357;SDS011;65185;21.060;105.826;2023-08-06T08:56:33;7.05;;;1.90;;
76357;SDS011;65185;21.060;105.826;2023-08-06T08:59:05;5.57;;;1.65;;
76357;SDS011;65185;21.060;105.826;2023-08-06T09:01:32;5.20;;;1.90;;
76357;SDS011;65185;21.060;105.826;2023-08-06T09:04:00;6.18;;;1.95;;
76357;SDS011;65185;21.060;105.826;2023-08-06T09:06:28;6.18;;;1.90;;
76357;SDS011;65185;21.060;105.826;2023-08-06T09:09:01;5.95;;;1.65;;
76357;SDS011;65185;21.060;105.826;2023-08-06T09:11:36;5.82;;;1.77;;
76357;SDS011;65185;21.060;105.826;2023-08-06T09:14:09;6.30;;;1.80;;
76357;SDS011;65185;21.060;105.826;2023-08-06T09:16:42;6.20;;;1.63;;
76357;SDS011;65185;21.060;105.826;2023-08-06T09:19:15;5.95;;;2.17;;
76357;SDS011;65185;21.060;105.826;2023-08-06T09:21:42;7.63;;;2.10;;
76357;SDS011;65185;21.060;105.826;2023-08-06T09:24:14;7.22;;;1.95;;
76357;SDS011;65185;21.060;105.826;2023-08-06T09:26:43;6.25;;;1.95;;
76357;SDS011;65185;21.060;105.826;2023-08-06T09:31:44;6.30;;;1.92;;
76357;SDS011;65185;21.060;105.826;2023-08-06T09:34:19;5.57;;;1.80;;
76357;SDS011;65185;21.060;105.826;2023-08-06T09:36:48;7.22;;;2.13;;
76357;SDS011;65185;21.060;105.826;2023-08-06T09:39:20;7.65;;;2.15;;
76357;SDS011;65185;21.060;105.826;2023-08-06T09:41:57;6.88;;;2.40;;
76357;SDS011;65185;21.060;105.826;2023-08-06T09:44:25;9.85;;;3.00;;
76357;SDS011;65185;21.060;105.826;2023-08-06T09:46:53;10.73;;;3.10;;
76357;SDS011;65185;21.060;105.826;2023-08-06T09:49:25;9.95;;;2.88;;
76357;SDS011;65185;21.060;105.826;2023-08-06T09:51:54;8.52;;;2.53;;
76357;SDS011;65185;21.060;105.826;2023-08-06T09:54:23;10.65;;;2.55;;
76357;SDS011;65185;21.060;105.826;2023-08-06T09:56:52;7.90;;;2.70;;
76357;SDS011;65185;21.060;105.826;2023-08-06T09:59:25;8.77;;;3.08;;
76357;SDS011;65185;21.060;105.826;2023-08-06T10:01:53;7.07;;;2.63;;
76357;SDS011;65185;21.060;105.826;2023-08-06T10:04:21;6.93;;;2.10;;
76357;SDS011;65185;21.060;105.826;2023-08-06T10:06:49;7.15;;;2.15;;
76357;SDS011;65185;21.060;105.826;2023-08-06T10:09:16;7.93;;;2.30;;
76357;SDS011;65185;21.060;105.826;2023-08-06T10:11:43;9.23;;;2.60;;
76357;SDS011;65185;21.060;105.826;2023-08-06T10:14:31;12.43;;;2.63;;
76357;SDS011;65185;21.060;105.826;2023-08-06T10:17:01;8.00;;;2.50;;
76357;SDS011;65185;21.060;105.826;2023-08-06T10:19:29;7.03;;;2.10;;
76357;SDS011;65185;21.060;105.826;2023-08-06T10:22:13;6.43;;;2.40;;
76357;SDS011;65185;21.060;105.826;2023-08-06T10:27:32;7.22;;;2.15;;
76357;SDS011;65185;21.060;105.826;2023-08-06T10:30:25;7.60;;;2.10;;
76357;SDS011;65185;21.060;105.826;2023-08-06T10:32:54;9.50;;;2.50;;
76357;SDS011;65185;21.060;105.826;2023-08-06T10:35:41;8.73;;;2.60;;
76357;SDS011;65185;21.060;105.826;2023-08-06T10:38:15;8.10;;;2.42;;
76357;SDS011;65185;21.060;105.826;2023-08-06T10:46:03;8.10;;;3.33;;
76357;SDS011;65185;21.060;105.826;2023-08-06T10:48:36;6.68;;;3.03;;
76357;SDS011;65185;21.060;105.826;2023-08-06T10:51:11;9.13;;;3.33;;
76357;SDS011;65185;21.060;105.826;2023-08-06T10:53:49;11.13;;;2.80;;
76357;SDS011;65185;21.060;105.826;2023-08-06T10:56:17;8.40;;;2.90;;
76357;SDS011;65185;21.060;105.826;2023-08-06T10:58:45;12.30;;;3.40;;
76357;SDS011;65185;21.060;105.826;2023-08-06T11:01:13;7.57;;;3.13;;
76357;SDS011;65185;21.060;105.826;2023-08-06T11:03:41;7.50;;;3.10;;
76357;SDS011;65185;21.060;105.826;2023-08-06T11:06:09;8.90;;;3.38;;
76357;SDS011;65185;21.060;105.826;2023-08-06T11:08:37;9.40;;;3.30;;
76357;SDS011;65185;21.060;105.826;2023-08-06T11:11:13;7.18;;;3.03;;
76357;SDS011;65185;21.060;105.826;2023-08-06T11:13:45;9.25;;;2.80;;
76357;SDS011;65185;21.060;105.826;2023-08-06T11:16:14;8.73;;;3.28;;
76357;SDS011;65185;21.060;105.826;2023-08-06T11:18:41;9.23;;;2.72;;
76357;SDS011;65185;21.060;105.826;2023-08-06T11:21:08;8.07;;;2.80;;
76357;SDS011;65185;21.060;105.826;2023-08-06T11:23:35;8.63;;;2.55;;
76357;SDS011;65185;21.060;105.826;2023-08-06T11:26:02;7.75;;;3.17;;
76357;SDS011;65185;21.060;105.826;2023-08-06T11:28:28;11.55;;;2.80;;
76357;SDS011;65185;21.060;105.826;2023-08-06T11:30:55;9.15;;;2.80;;
76357;SDS011;65185;21.060;105.826;2023-08-06T11:33:36;7.82;;;2.95;;
76357;SDS011;65185;21.060;105.826;2023-08-06T11:36:02;8.82;;;2.67;;
76357;SDS011;65185;21.060;105.826;2023-08-06T11:38:29;7.45;;;2.75;;
76357;SDS011;65185;21.060;105.826;2023-08-06T11:40:56;8.65;;;3.00;;
76357;SDS011;65185;21.060;105.826;2023-08-06T11:43:23;8.75;;;2.67;;
76357;SDS011;65185;21.060;105.826;2023-08-06T11:45:50;8.02;;;2.80;;
76357;SDS011;65185;21.060;105.826;2023-08-06T11:48:19;9.70;;;3.15;;
76357;SDS011;65185;21.060;105.826;2023-08-06T11:50:45;6.93;;;2.83;;
76357;SDS011;65185;21.060;105.826;2023-08-06T11:53:13;11.63;;;3.05;;
76357;SDS011;65185;21.060;105.826;2023-08-06T11:55:40;10.48;;;3.00;;
76357;SDS011;65185;21.060;105.826;2023-08-06T11:58:09;6.63;;;2.65;;
76357;SDS011;65185;21.060;105.826;2023-08-06T12:00:40;7.97;;;3.00;;
76357;SDS011;65185;21.060;105.826;2023-08-06T12:03:08;10.27;;;2.92;;
76357;SDS011;65185;21.060;105.826;2023-08-06T12:05:37;8.80;;;3.15;;
76357;SDS011;65185;21.060;105.826;2023-08-06T12:08:04;8.50;;;2.90;;
76357;SDS011;65185;21.060;105.826;2023-08-06T12:10:31;7.32;;;2.78;;
76357;SDS011;65185;21.060;105.826;2023-08-06T12:12:59;9.98;;;3.60;;
76357;SDS011;65185;21.060;105.826;2023-08-06T12:15:26;8.40;;;3.25;;
76357;SDS011;65185;21.060;105.826;2023-08-06T12:17:52;8.50;;;3.42;;
76357;SDS011;65185;21.060;105.826;2023-08-06T12:20:19;8.35;;;3.03;;
76357;SDS011;65185;21.060;105.826;2023-08-06T12:22:46;7.95;;;2.95;;
76357;SDS011;65185;21.060;105.826;2023-08-06T12:25:13;8.50;;;3.28;;
76357;SDS011;65185;21.060;105.826;2023-08-06T12:27:40;11.10;;;3.45;;
76357;SDS011;65185;21.060;105.826;2023-08-06T12:30:08;8.77;;;3.05;;
76357;SDS011;65185;21.060;105.826;2023-08-06T12:32:37;6.82;;;2.92;;
76357;SDS011;65185;21.060;105.826;2023-08-06T12:35:04;6.43;;;2.90;;
76357;SDS011;65185;21.060;105.826;2023-08-06T12:37:35;8.68;;;2.90;;
76357;SDS011;65185;21.060;105.826;2023-08-06T12:40:04;7.50;;;3.10;;
76357;SDS011;65185;21.060;105.826;2023-08-06T12:42:31;7.82;;;3.22;;
76357;SDS011;65185;21.060;105.826;2023-08-06T12:47:26;8.00;;;2.70;;
76357;SDS011;65185;21.060;105.826;2023-08-06T12:49:53;9.70;;;3.47;;
76357;SDS011;65185;21.060;105.826;2023-08-06T12:52:20;7.82;;;2.97;;
76357;SDS011;65185;21.060;105.826;2023-08-06T12:54:46;8.15;;;3.35;;
76357;SDS011;65185;21.060;105.826;2023-08-06T12:57:13;9.70;;;3.30;;
76357;SDS011;65185;21.060;105.826;2023-08-06T12:59:40;7.35;;;3.00;;
76357;SDS011;65185;21.060;105.826;2023-08-06T13:02:07;9.32;;;3.33;;
76357;SDS011;65185;21.060;105.826;2023-08-06T13:04:33;7.75;;;3.15;;
76357;SDS011;65185;21.060;105.826;2023-08-06T13:07:00;13.45;;;3.75;;
76357;SDS011;65185;21.060;105.826;2023-08-06T13:09:27;10.70;;;4.38;;
76357;SDS011;65185;21.060;105.826;2023-08-06T13:11:54;9.95;;;4.40;;
76357;SDS011;65185;21.060;105.826;2023-08-06T13:14:21;12.98;;;5.13;;
76357;SDS011;65185;21.060;105.826;2023-08-06T13:16:48;12.13;;;5.25;;
76357;SDS011;65185;21.060;105.826;2023-08-06T13:19:15;13.45;;;5.97;;
76357;SDS011;65185;21.060;105.826;2023-08-06T13:24:09;12.32;;;6.35;;
76357;SDS011;65185;21.060;105.826;2023-08-06T13:26:35;15.52;;;6.50;;
76357;SDS011;65185;21.060;105.826;2023-08-06T13:29:02;15.50;;;6.47;;
76357;SDS011;65185;21.060;105.826;2023-08-06T13:31:30;15.07;;;6.47;;
76357;SDS011;65185;21.060;105.826;2023-08-06T13:33:57;12.80;;;6.38;;
76357;SDS011;65185;21.060;105.826;2023-08-06T13:36:25;13.80;;;6.13;;
76357;SDS011;65185;21.060;105.826;2023-08-06T13:38:52;12.13;;;5.97;;
76357;SDS011;65185;21.060;105.826;2023-08-06T13:41:19;12.02;;;6.18;;
76357;SDS011;65185;21.060;105.826;2023-08-06T13:43:46;15.18;;;6.32;;
76357;SDS011;65185;21.060;105.826;2023-08-06T13:46:14;12.85;;;6.88;;
76357;SDS011;65185;21.060;105.826;2023-08-06T13:48:45;13.60;;;6.45;;
76357;SDS011;65185;21.060;105.826;2023-08-06T13:51:16;12.68;;;6.20;;
76357;SDS011;65185;21.060;105.826;2023-08-06T13:53:43;14.65;;;7.45;;
76357;SDS011;65185;21.060;105.826;2023-08-06T13:56:11;17.23;;;8.70;;
76357;SDS011;65185;21.060;105.826;2023-08-06T13:58:40;14.35;;;7.82;;
76357;SDS011;65185;21.060;105.826;2023-08-06T14:01:09;14.93;;;8.15;;
76357;SDS011;65185;21.060;105.826;2023-08-06T14:03:37;15.73;;;8.48;;
76357;SDS011;65185;21.060;105.826;2023-08-06T14:06:04;15.10;;;7.80;;
76357;SDS011;65185;21.060;105.826;2023-08-06T14:08:31;17.95;;;9.07;;
76357;SDS011;65185;21.060;105.826;2023-08-06T14:10:58;21.58;;;9.68;;
76357;SDS011;65185;21.060;105.826;2023-08-06T14:13:27;20.73;;;9.10;;
76357;SDS011;65185;21.060;105.826;2023-08-06T14:15:54;20.55;;;9.27;;
76357;SDS011;65185;21.060;105.826;2023-08-06T14:18:21;16.25;;;8.60;;
76357;SDS011;65185;21.060;105.826;2023-08-06T14:20:48;16.98;;;8.60;;
76357;SDS011;65185;21.060;105.826;2023-08-06T14:23:15;14.68;;;8.75;;
76357;SDS011;65185;21.060;105.826;2023-08-06T14:25:42;16.25;;;8.35;;
76357;SDS011;65185;21.060;105.826;2023-08-06T14:28:10;18.77;;;8.63;;
76357;SDS011;65185;21.060;105.826;2023-08-06T14:30:37;18.85;;;8.48;;